Kansas City, Missouri
Traffic Map
Current Weather Conditions
Kansas City, Missouri
Scattered Clouds
Scattered Clouds
70°
Feels Like: 70°
Wind Chill: 70° Ceiling: Unl
Heat Index: 70° Visibility: 10mi
Dew Point: 66° Wind: 9mph
Humidity: 87% Direction: 200° (SSW)
Pressure: 30.01in Gusts: 0mph
Raw Report DataKMKC 250954Z 20008KT 10SM SCT100 21/19 A3001 RMK AO2 RAE29 SLP154 P0001 T02110189
Traffic Incident Summary
Active as of:
Severity:
Category:
InformationThere was an issue retrieving the traffic information for this location. Please try a different location or try again shortly.
Advertisements
Track Severe Weather on mobile